createdAt,value
2022-11-25T00:01:12.251Z,100392.77
2022-11-25T00:03:40.281Z,100393.13
2022-11-25T00:06:23.632Z,100390.73
2022-11-25T00:09:02.688Z,100393.30
2022-11-25T00:11:29.944Z,100391.59
2022-11-25T00:13:57.316Z,100393.98
2022-11-25T00:16:26.044Z,100397.08
2022-11-25T00:18:54.840Z,100393.48
2022-11-25T00:21:24.657Z,100397.60
2022-11-25T00:23:56.555Z,100398.81
2022-11-25T00:26:24.888Z,100400.87
2022-11-25T00:28:52.389Z,100403.42
2022-11-25T00:31:24.034Z,100406.69
2022-11-25T00:33:51.605Z,100403.08
2022-11-25T00:36:44.528Z,100402.06
2022-11-25T00:39:16.119Z,100401.89
2022-11-25T00:42:03.051Z,100406.19
2022-11-25T00:44:41.026Z,100410.99
2022-11-25T00:47:11.935Z,100413.39
2022-11-25T00:49:41.490Z,100411.85
2022-11-25T00:52:09.947Z,100414.42
2022-11-25T00:54:37.176Z,100415.80
2022-11-25T00:57:04.380Z,100419.40
2022-11-25T00:59:31.234Z,100419.73
2022-11-25T01:01:59.478Z,100424.36
2022-11-25T01:04:26.600Z,100421.61
2022-11-25T01:06:56.166Z,100423.29
2022-11-25T01:09:23.751Z,100427.91
2022-11-25T01:11:51.207Z,100427.06
2022-11-25T01:14:19.806Z,100429.46
2022-11-25T01:16:47.604Z,100432.38
2022-11-25T01:19:15.573Z,100430.50
2022-11-25T01:21:42.803Z,100431.88
2022-11-25T01:24:13.942Z,100430.32
2022-11-25T01:26:42.164Z,100431.88
2022-11-25T01:29:17.740Z,100430.52
2022-11-25T01:31:45.548Z,100429.49
2022-11-25T01:34:18.703Z,100428.30
2022-11-25T01:36:45.981Z,100428.29
2022-11-25T01:39:16.781Z,100426.77
2022-11-25T01:41:44.559Z,100428.98
2022-11-25T01:44:25.074Z,100429.69
2022-11-25T01:47:18.414Z,100432.42
2022-11-25T01:49:59.564Z,100435.17
2022-11-25T01:52:38.704Z,100438.77
2022-11-25T01:55:26.064Z,100441.02
2022-11-25T01:58:02.368Z,100447.86
2022-11-25T02:00:29.313Z,100446.30
2022-11-25T02:02:57.599Z,100444.25
2022-11-25T02:05:48.816Z,100439.63
2022-11-25T02:08:16.415Z,100437.38
2022-11-25T02:10:44.163Z,100435.49
2022-11-25T02:13:11.363Z,100442.52
2022-11-25T02:15:38.486Z,100440.31
2022-11-25T02:18:06.385Z,100442.71
2022-11-25T02:20:33.411Z,100447.35
2022-11-25T02:23:25.018Z,100448.38
2022-11-25T02:25:53.260Z,100448.91
2022-11-25T02:28:26.980Z,100451.64
2022-11-25T02:30:54.149Z,100454.05
2022-11-25T02:33:23.840Z,100454.06
2022-11-25T02:36:00.007Z,100456.80
2022-11-25T02:38:45.871Z,100459.02
2022-11-25T02:41:36.097Z,100461.57
2022-11-25T02:44:04.770Z,100465.67
2022-11-25T02:46:32.812Z,100471.82
2022-11-25T02:49:10.536Z,100472.84
2022-11-25T02:51:39.564Z,100478.33
2022-11-25T02:54:08.902Z,100476.98
2022-11-25T02:56:36.647Z,100474.23
2022-11-25T02:59:04.055Z,100468.58
2022-11-25T03:01:32.054Z,100470.29
2022-11-25T03:03:59.515Z,100466.52
2022-11-25T03:06:29.122Z,100465.31
2022-11-25T03:08:56.712Z,100466.52
2022-11-25T03:11:44.058Z,100470.14
2022-11-25T03:14:11.135Z,100464.83
2022-11-25T03:16:37.949Z,100471.69
2022-11-25T03:19:05.024Z,100475.13
2022-11-25T03:21:31.976Z,100475.30
2022-11-25T03:23:58.962Z,100478.03
2022-11-25T03:26:26.085Z,100478.20
2022-11-25T03:28:53.465Z,100478.36
2022-11-25T03:31:20.694Z,100480.08
2022-11-25T03:33:47.656Z,100482.67
2022-11-25T03:36:15.119Z,100484.89
2022-11-25T03:38:42.013Z,100482.85
2022-11-25T03:41:08.927Z,100487.83
2022-11-25T03:43:36.711Z,100492.13
2022-11-25T03:46:03.636Z,100494.02
2022-11-25T03:48:30.858Z,100496.06
2022-11-25T03:50:58.136Z,100495.55
2022-11-25T03:53:25.429Z,100495.73
2022-11-25T03:55:52.657Z,100496.05
2022-11-25T03:58:21.363Z,100497.44
2022-11-25T04:00:49.415Z,100500.69
2022-11-25T04:03:17.318Z,100502.23
2022-11-25T04:05:44.605Z,100503.27
2022-11-25T04:08:12.918Z,100503.95
2022-11-25T04:10:40.078Z,100501.73
2022-11-25T04:13:07.202Z,100501.20
2022-11-25T04:15:37.128Z,100499.16
2022-11-25T04:18:05.133Z,100495.02
2022-11-25T04:20:32.486Z,100496.74
2022-11-25T04:23:03.092Z,100498.45
2022-11-25T04:25:29.961Z,100498.29
2022-11-25T04:27:57.956Z,100504.30
2022-11-25T04:30:28.650Z,100508.23
2022-11-25T04:32:55.648Z,100513.38
2022-11-25T04:35:23.193Z,100517.83
2022-11-25T04:37:52.620Z,100521.27
2022-11-25T04:40:19.499Z,100521.95
2022-11-25T04:42:50.252Z,100522.46
2022-11-25T04:45:23.620Z,100524.02
2022-11-25T04:47:51.832Z,100525.90
2022-11-25T04:50:22.198Z,100526.59
2022-11-25T04:52:54.806Z,100528.30
2022-11-25T04:55:21.677Z,100527.27
2022-11-25T04:57:48.754Z,100527.95
2022-11-25T05:00:16.959Z,100525.55
2022-11-25T05:02:43.900Z,100522.98
2022-11-25T05:05:18.632Z,100521.78
2022-11-25T05:07:45.797Z,100524.19
2022-11-25T05:10:14.147Z,100525.39
2022-11-25T05:12:44.436Z,100528.31
2022-11-25T05:15:15.543Z,100528.83
2022-11-25T05:17:44.859Z,100531.05
2022-11-25T05:20:12.867Z,100537.73
2022-11-25T05:22:40.200Z,100543.20
2022-11-25T05:25:10.129Z,100548.17
2022-11-25T05:27:41.052Z,100548.84
2022-11-25T05:30:09.574Z,100548.65
2022-11-25T05:32:37.440Z,100549.95
2022-11-25T05:35:07.964Z,100555.41
2022-11-25T05:37:35.013Z,100553.54
2022-11-25T05:40:05.174Z,100555.58
2022-11-25T05:43:01.457Z,100554.89
2022-11-25T05:45:32.126Z,100549.05
2022-11-25T05:47:58.947Z,100549.40
2022-11-25T05:50:26.988Z,100552.10
2022-11-25T05:53:03.453Z,100551.40
2022-11-25T05:55:30.617Z,100552.61
2022-11-25T05:57:59.162Z,100552.08
2022-11-25T06:00:27.015Z,100550.52
2022-11-25T06:02:55.045Z,100553.14
2022-11-25T06:05:22.187Z,100552.81
2022-11-25T06:07:50.383Z,100557.63
2022-11-25T06:10:18.978Z,100559.67
2022-11-25T06:12:46.270Z,100559.66
2022-11-25T06:15:14.333Z,100560.05
2022-11-25T06:17:41.782Z,100558.51
2022-11-25T06:20:15.730Z,100561.09
2022-11-25T06:22:42.745Z,100561.63
2022-11-25T06:25:09.734Z,100562.98
2022-11-25T06:28:04.483Z,100564.17
2022-11-25T06:30:25.484Z,100566.20
2022-11-25T06:33:12.076Z,100564.67
2022-11-25T06:35:39.719Z,100566.91
2022-11-25T06:38:07.317Z,100561.44
2022-11-25T06:40:34.118Z,100560.92
2022-11-25T06:43:01.030Z,100563.14
2022-11-25T06:45:27.958Z,100560.02
2022-11-25T06:47:54.817Z,100562.40
2022-11-25T06:50:21.853Z,100559.46
2022-11-25T06:52:48.708Z,100561.51
2022-11-25T06:55:16.770Z,100563.54
2022-11-25T06:57:43.763Z,100568.02
2022-11-25T07:00:11.025Z,100565.14
2022-11-25T07:02:42.900Z,100568.24
2022-11-25T07:05:12.556Z,100566.37
2022-11-25T07:07:39.476Z,100569.81
2022-11-25T07:10:07.241Z,100566.73
2022-11-25T07:12:34.155Z,100567.44
2022-11-25T07:15:01.167Z,100568.64
2022-11-25T07:17:28.070Z,100572.08
2022-11-25T07:19:54.958Z,100570.73
2022-11-25T07:22:22.353Z,100572.98
2022-11-25T07:24:49.144Z,100570.41
2022-11-25T07:27:16.100Z,100573.67
2022-11-25T07:30:29.610Z,100573.84
2022-11-25T07:32:33.217Z,100574.88
2022-11-25T07:35:00.043Z,100578.34
2022-11-25T07:37:27.121Z,100578.53
2022-11-25T07:39:53.990Z,100578.55
2022-11-25T07:42:20.874Z,100580.43
2022-11-25T07:44:48.691Z,100581.98
2022-11-25T07:47:34.898Z,100582.52
2022-11-25T07:50:01.684Z,100588.35
2022-11-25T07:52:28.728Z,100586.30
2022-11-25T07:54:55.683Z,100585.10
2022-11-25T07:57:22.677Z,100588.02
2022-11-25T07:59:49.519Z,100586.13
2022-11-25T08:02:16.403Z,100587.33
2022-11-25T08:04:43.257Z,100590.76
2022-11-25T08:07:11.005Z,100592.80
2022-11-25T08:09:38.391Z,100587.14
2022-11-25T08:12:05.483Z,100587.65
2022-11-25T08:14:32.286Z,100585.60
2022-11-25T08:16:59.228Z,100587.64
2022-11-25T08:19:31.253Z,100586.95
2022-11-25T08:21:58.559Z,100588.50
2022-11-25T08:24:25.696Z,100589.36
2022-11-25T08:26:54.273Z,100589.04
2022-11-25T08:29:21.343Z,100593.33
2022-11-25T08:31:48.330Z,100590.43
2022-11-25T08:34:21.529Z,100596.79
2022-11-25T08:36:49.298Z,100598.50
2022-11-25T08:42:06.886Z,100600.02
2022-11-25T08:44:34.553Z,100595.91
2022-11-25T08:47:01.463Z,100595.71
2022-11-25T08:49:29.957Z,100596.05
2022-11-25T08:51:57.449Z,100597.61
2022-11-25T08:54:24.277Z,100600.02
2022-11-25T08:56:51.479Z,100606.20
2022-11-25T08:59:18.412Z,100607.92
2022-11-25T09:01:45.326Z,100609.14
2022-11-25T09:04:12.466Z,100612.41
2022-11-25T09:06:39.288Z,100615.84
2022-11-25T09:09:06.193Z,100621.54
2022-11-25T09:11:33.287Z,100623.07
2022-11-25T09:14:00.255Z,100624.13
2022-11-25T09:16:27.431Z,100625.85
2022-11-25T09:18:56.317Z,100623.29
2022-11-25T16:17:37.698Z,100779.86
2022-11-25T16:20:16.689Z,100776.23
2022-11-25T16:22:45.531Z,100773.79
2022-11-25T16:25:16.345Z,100770.50
2022-11-25T16:27:45.604Z,100772.70
2022-11-25T16:30:19.475Z,100775.41
2022-11-25T16:32:47.670Z,100776.07
2022-11-25T16:35:20.805Z,100775.88
2022-11-25T16:37:49.768Z,100782.55
2022-11-25T16:40:19.484Z,100782.70
2022-11-25T16:42:50.320Z,100785.77
2022-11-25T16:45:25.434Z,100791.23
2022-11-25T16:47:54.258Z,100793.98
2022-11-25T16:50:23.775Z,100793.09
2022-11-25T16:52:52.091Z,100793.77
2022-11-25T16:55:27.568Z,100794.09
2022-11-25T16:57:55.923Z,100798.88
2022-11-25T17:00:24.188Z,100801.10
2022-11-25T17:02:52.497Z,100802.45
2022-11-25T17:05:23.989Z,100801.74
2022-11-25T17:07:52.705Z,100807.59
2022-11-25T17:10:21.807Z,100807.40
2022-11-25T17:12:50.631Z,100804.63
2022-11-25T17:15:25.060Z,100809.08
2022-11-25T17:17:53.429Z,100809.02
2022-11-25T17:20:24.955Z,100810.04
2022-11-25T17:22:54.489Z,100810.35
2022-11-25T17:25:25.721Z,100810.00
2022-11-25T17:27:55.654Z,100811.72
2022-11-25T17:30:27.598Z,100810.34
2022-11-25T17:33:03.713Z,100811.90
2022-11-25T17:35:31.905Z,100813.45
2022-11-25T17:38:01.182Z,100813.10
2022-11-25T17:40:29.571Z,100812.93
2022-11-25T17:42:57.810Z,100813.44
2022-11-25T17:45:26.046Z,100811.55
2022-11-25T17:47:54.291Z,100811.03
2022-11-25T17:50:25.765Z,100812.05
2022-11-25T17:52:54.016Z,100814.09
2022-11-25T17:55:23.069Z,100815.27
2022-11-25T17:57:51.967Z,100815.09
2022-11-25T18:00:22.252Z,100821.55
2022-11-25T18:02:51.151Z,100821.84
2022-11-25T18:05:25.360Z,100822.85
2022-11-25T18:07:54.442Z,100822.30
2022-11-25T18:10:26.685Z,100825.38
2022-11-25T18:12:57.351Z,100825.55
2022-11-25T18:15:29.648Z,100825.37
2022-11-25T18:18:01.818Z,100828.06
2022-11-25T18:20:32.838Z,100829.91
2022-11-25T18:23:01.207Z,100831.95
2022-11-25T18:25:34.101Z,100832.98
2022-11-25T18:28:04.578Z,100837.27
2022-11-25T18:30:35.800Z,100838.10
2022-11-25T18:33:06.424Z,100836.57
2022-11-25T18:35:36.748Z,100833.83
2022-11-25T18:38:06.609Z,100836.04
2022-11-25T18:40:39.761Z,100838.20
2022-11-25T18:43:14.989Z,100839.69
2022-11-25T18:45:43.853Z,100837.39
2022-11-25T18:48:18.401Z,100839.61
2022-11-25T18:50:47.825Z,100838.06
2022-11-25T18:53:16.673Z,100837.71
2022-11-25T18:55:46.089Z,100842.34
2022-11-25T18:58:18.614Z,100845.75
2022-11-25T19:00:48.789Z,100853.61
2022-11-25T19:03:20.150Z,100854.30
2022-11-25T19:05:49.094Z,100851.20
2022-11-25T19:08:18.872Z,100853.63
2022-11-25T19:10:48.499Z,100849.48
2022-11-25T19:13:36.708Z,100853.95
2022-11-25T19:16:13.765Z,100850.91
2022-11-25T19:18:45.379Z,100854.85
2022-11-25T19:21:19.222Z,100858.65
2022-11-25T19:23:48.000Z,100858.30
2022-11-25T19:26:33.729Z,100866.89
2022-11-25T19:29:08.047Z,100874.47
2022-11-25T19:31:36.416Z,100871.58
2022-11-25T19:34:05.025Z,100879.99
2022-11-25T19:36:35.307Z,100883.23
2022-11-25T19:39:03.652Z,100886.14
2022-11-25T19:41:31.856Z,100886.48
2022-11-25T19:44:00.093Z,100890.61
2022-11-25T19:46:46.388Z,100889.40
2022-11-25T19:49:19.999Z,100888.05
2022-11-25T19:51:48.988Z,100887.42
2022-11-25T19:54:19.082Z,100893.11
2022-11-25T19:56:47.939Z,100897.95
2022-11-25T19:59:16.144Z,100903.13
2022-11-25T20:01:46.345Z,100904.02
2022-11-25T20:04:20.922Z,100905.90
2022-11-25T20:06:49.932Z,100905.39
2022-11-25T20:09:18.110Z,100902.14
2022-11-25T20:11:47.644Z,100906.59
2022-11-25T20:14:15.787Z,100907.45
2022-11-25T20:16:44.056Z,100912.59
2022-11-25T20:19:17.825Z,100913.61
2022-11-25T20:21:46.661Z,100917.05
2022-11-25T20:24:18.748Z,100917.42
2022-11-25T20:26:48.903Z,100918.14
2022-11-25T20:29:24.690Z,100919.36
2022-11-25T20:31:56.174Z,100920.05
2022-11-25T20:34:24.978Z,100919.31
2022-11-25T20:36:53.289Z,100919.16
2022-11-25T20:39:21.645Z,100918.00
2022-11-25T20:41:52.690Z,100922.48
2022-11-25T20:44:21.437Z,100926.04
2022-11-25T20:46:50.006Z,100925.34
2022-11-25T20:49:29.604Z,100926.58
2022-11-25T20:51:57.964Z,100932.09
2022-11-25T21:07:13.323Z,100936.67
2022-11-25T21:09:51.616Z,100936.30
2022-11-25T21:12:19.895Z,100939.00
2022-11-25T21:14:48.164Z,100941.90
2022-11-25T21:17:16.494Z,100945.31
2022-11-25T21:19:45.132Z,100948.05
2022-11-25T21:22:15.030Z,100949.07
2022-11-25T21:24:44.722Z,100953.35
2022-11-25T21:27:17.459Z,100950.58
2022-11-25T21:29:46.298Z,100954.52
2022-11-25T21:32:23.247Z,100956.56
2022-11-25T21:34:51.788Z,100956.89
2022-11-25T21:37:29.797Z,100959.29
2022-11-25T21:39:59.274Z,100955.98
2022-11-25T21:42:29.909Z,100953.73
2022-11-25T21:44:58.283Z,100954.39
2022-11-25T21:47:29.578Z,100956.27
2022-11-25T21:49:58.237Z,100960.38
2022-11-25T21:52:26.448Z,100961.88
2022-11-25T21:54:54.684Z,100963.22
2022-11-25T21:57:28.501Z,100966.96
2022-11-25T21:59:56.698Z,100964.20
2022-11-25T22:02:25.324Z,100967.98
2022-11-25T22:04:59.157Z,100970.23
2022-11-25T22:07:30.730Z,100970.24
2022-11-25T22:09:59.653Z,100974.03
2022-11-25T22:12:30.645Z,100976.10
2022-11-25T22:14:59.913Z,100975.74
2022-11-25T22:17:30.134Z,100979.02
2022-11-25T22:19:58.808Z,100977.30
2022-11-25T22:22:27.563Z,100979.89
2022-11-25T22:24:55.794Z,100977.52
2022-11-25T22:27:36.364Z,100981.30
2022-11-25T22:30:05.905Z,100980.98
2022-11-25T22:32:34.133Z,100985.13
2022-11-25T22:35:02.298Z,100989.25
2022-11-25T22:37:31.328Z,100986.84
2022-11-25T22:39:59.542Z,100992.36
2022-11-25T22:42:31.231Z,100993.02
2022-11-25T22:45:02.309Z,100999.20
2022-11-25T22:47:49.408Z,101000.06
2022-11-25T22:50:33.317Z,100998.39
2022-11-25T22:53:02.009Z,101006.12
2022-11-25T22:55:32.392Z,101007.17
2022-11-25T22:58:01.937Z,101006.15
2022-11-25T23:00:36.373Z,101006.67
2022-11-25T23:03:07.053Z,101006.83
2022-11-25T23:05:37.223Z,101005.13
2022-11-25T23:08:16.833Z,101006.84
2022-11-25T23:10:45.956Z,101008.38
2022-11-25T23:13:17.120Z,101008.91
2022-11-25T23:15:49.039Z,101007.52
2022-11-25T23:18:26.316Z,101010.95
2022-11-25T23:20:55.499Z,101013.88
2022-11-25T23:23:29.357Z,101015.95
2022-11-25T23:25:58.204Z,101015.42
2022-11-25T23:28:26.682Z,101018.51
2022-11-25T23:30:57.139Z,101020.40
2022-11-25T23:33:31.617Z,101023.14
2022-11-25T23:36:04.768Z,101025.52
2022-11-25T23:38:42.323Z,101027.92
2022-11-25T23:41:18.983Z,101025.39
2022-11-25T23:43:47.434Z,101026.74
2022-11-25T23:46:18.593Z,101028.67
2022-11-25T23:48:54.924Z,101026.47
2022-11-25T23:51:24.648Z,101033.01
2022-11-25T23:53:53.573Z,101030.27
2022-11-25T23:56:23.076Z,101035.77
2022-11-25T23:58:51.339Z,101037.65
